createdAt,value
2018-07-27T00:02:27.262Z,97286.25
2018-07-27T00:04:57.387Z,97277.69
2018-07-27T00:07:27.511Z,97275.95
2018-07-27T00:09:57.745Z,97273.95
2018-07-27T00:12:27.824Z,97279.84
2018-07-27T00:15:12.853Z,97277.22
2018-07-27T00:17:48.400Z,97280.64
2018-07-27T00:20:23.465Z,97270.23
2018-07-27T00:22:53.603Z,97283.33
2018-07-27T00:25:23.705Z,97271.82
2018-07-27T00:27:54.035Z,97266.06
2018-07-27T00:30:44.940Z,97269.91
2018-07-27T00:33:17.406Z,97268.89
2018-07-27T00:35:48.248Z,97274.48
2018-07-27T00:38:20.447Z,97273.60
2018-07-27T00:40:51.155Z,97272.26
2018-07-27T00:43:21.496Z,97263.72
2018-07-27T00:45:51.493Z,97257.55
2018-07-27T00:48:23.158Z,97257.03
2018-07-27T00:50:53.553Z,97262.05
2018-07-27T00:53:24.172Z,97260.08
2018-07-27T00:55:54.191Z,97263.51
2018-07-27T01:01:22.420Z,97258.91
2018-07-27T01:03:52.648Z,97260.88
2018-07-27T01:06:22.848Z,97259.14
2018-07-27T01:08:52.878Z,97267.39
2018-07-27T01:11:43.903Z,97270.03
2018-07-27T01:14:14.178Z,97266.23
2018-07-27T01:16:44.828Z,97262.39
2018-07-27T01:19:15.164Z,97258.30
2018-07-27T01:21:45.413Z,97252.92
2018-07-27T01:24:15.741Z,97251.26
2018-07-27T01:26:46.472Z,97252.22
2018-07-27T01:35:11.996Z,97252.30
2018-07-27T01:40:42.629Z,97246.79
2018-07-27T01:43:12.784Z,97248.38
2018-07-27T01:45:42.969Z,97240.13
2018-07-27T01:48:13.057Z,97238.27
2018-07-27T01:50:43.336Z,97238.41
2018-07-27T01:53:31.070Z,97236.95
2018-07-27T01:56:04.856Z,97239.85
2018-07-27T01:58:43.460Z,97242.36
2018-07-27T02:01:13.666Z,97237.31
2018-07-27T02:03:43.889Z,97234.89
2018-07-27T02:06:14.421Z,97236.47
2018-07-27T02:08:44.773Z,97238.41
2018-07-27T02:11:15.257Z,97237.70
2018-07-27T02:14:05.708Z,97237.55
2018-07-27T02:16:36.836Z,97241.64
2018-07-27T02:19:17.068Z,97229.28
2018-07-27T02:21:48.727Z,97226.52
2018-07-27T02:24:18.967Z,97230.17
2018-07-27T02:26:49.243Z,97230.82
2018-07-27T02:29:19.254Z,97229.69
2018-07-27T02:31:49.619Z,97224.78
2018-07-27T02:34:19.916Z,97225.63
2018-07-27T02:36:50.119Z,97222.25
2018-07-27T02:39:20.401Z,97223.64
2018-07-27T02:41:51.044Z,97222.28
2018-07-27T02:44:21.355Z,97224.70
2018-07-27T02:46:51.483Z,97222.30
2018-07-27T02:49:21.754Z,97217.52
2018-07-27T02:51:51.969Z,97214.47
2018-07-27T02:54:22.302Z,97216.38
2018-07-27T02:56:52.488Z,97224.10
2018-07-27T02:59:22.608Z,97217.30
2018-07-27T03:01:53.131Z,97212.06
2018-07-27T03:04:23.160Z,97212.04
2018-07-27T03:06:53.518Z,97206.70
2018-07-27T03:09:23.706Z,97222.38
2018-07-27T03:11:53.802Z,97219.21
2018-07-27T03:14:23.972Z,97224.04
2018-07-27T03:16:54.880Z,97220.42
2018-07-27T03:19:25.095Z,97226.24
2018-07-27T03:21:55.371Z,97219.84
2018-07-27T03:24:25.448Z,97225.66
2018-07-27T03:26:55.530Z,97226.54
2018-07-27T03:29:25.466Z,97226.27
2018-07-27T03:31:55.571Z,97224.88
2018-07-27T03:34:25.626Z,97225.55
2018-07-27T03:36:55.727Z,97218.83
2018-07-27T03:39:26.023Z,97216.80
2018-07-27T03:41:55.966Z,97218.23
2018-07-27T03:44:26.702Z,97228.30
2018-07-27T03:46:56.738Z,97221.67
2018-07-27T03:49:26.752Z,97231.98
2018-07-27T03:51:56.877Z,97233.34
2018-07-27T03:54:26.909Z,97230.83
2018-07-27T03:56:56.995Z,97238.27
2018-07-27T03:59:27.035Z,97248.91
2018-07-27T04:01:57.036Z,97244.77
2018-07-27T04:04:27.067Z,97243.63
2018-07-27T04:06:57.138Z,97240.08
2018-07-27T04:09:27.106Z,97245.74
2018-07-27T04:11:57.061Z,97239.14
2018-07-27T04:14:27.049Z,97247.17
2018-07-27T04:16:57.058Z,97245.92
2018-07-27T04:19:27.165Z,97247.56
2018-07-27T04:21:57.110Z,97246.77
2018-07-27T04:24:27.111Z,97242.16
2018-07-27T04:26:57.027Z,97245.91
2018-07-27T04:29:27.142Z,97242.33
2018-07-27T04:31:57.132Z,97243.66
2018-07-27T04:34:27.115Z,97249.66
2018-07-27T04:36:57.125Z,97245.52
2018-07-27T04:39:27.084Z,97243.45
2018-07-27T04:41:57.047Z,97249.37
2018-07-27T04:44:27.225Z,97256.36
2018-07-27T04:46:57.227Z,97259.02
2018-07-27T04:49:27.267Z,97258.86
2018-07-27T04:54:17.083Z,97248.40
2018-07-27T04:56:47.718Z,97250.95
2018-07-27T04:59:17.746Z,97254.63
2018-07-27T05:01:48.043Z,97263.22
2018-07-27T05:04:18.131Z,97267.39
2018-07-27T05:06:48.184Z,97258.55
2018-07-27T05:09:21.485Z,97253.45
2018-07-27T05:11:52.128Z,97254.08
2018-07-27T05:14:22.347Z,97259.25
2018-07-27T05:16:52.526Z,97261.89
2018-07-27T05:19:22.654Z,97261.00
2018-07-27T05:21:52.834Z,97257.55
2018-07-27T05:24:23.497Z,97261.19
2018-07-27T05:26:53.550Z,97265.64
2018-07-27T05:29:23.556Z,97264.13
2018-07-27T05:31:53.756Z,97257.19
2018-07-27T05:34:23.977Z,97267.14
2018-07-27T05:36:54.262Z,97260.98
2018-07-27T05:39:26.139Z,97257.02
2018-07-27T05:41:57.141Z,97259.22
2018-07-27T05:44:27.358Z,97257.03
2018-07-27T05:46:57.455Z,97254.27
2018-07-27T05:49:27.734Z,97256.11
2018-07-27T05:51:58.286Z,97260.39
2018-07-27T05:54:28.997Z,97263.40
2018-07-27T05:56:59.478Z,97259.00
2018-07-27T05:59:29.573Z,97262.10
2018-07-27T06:02:00.202Z,97264.52
2018-07-27T06:04:34.021Z,97263.22
2018-07-27T06:07:09.990Z,97272.56
2018-07-27T06:09:45.172Z,97272.65
2018-07-27T06:12:17.027Z,97271.83
2018-07-27T06:14:47.076Z,97263.31
2018-07-27T06:17:21.718Z,97265.90
2018-07-27T06:19:52.441Z,97271.33
2018-07-27T06:25:19.487Z,97277.09
2018-07-27T06:27:49.922Z,97277.38
2018-07-27T06:30:22.885Z,97274.50
2018-07-27T06:32:54.285Z,97277.03
2018-07-27T06:35:24.461Z,97272.98
2018-07-27T06:37:54.606Z,97280.20
2018-07-27T06:40:25.844Z,97281.81
2018-07-27T06:42:55.982Z,97285.11
2018-07-27T06:45:34.128Z,97280.08
2018-07-27T06:48:04.917Z,97280.40
2018-07-27T06:50:37.228Z,97280.32
2018-07-27T06:53:08.152Z,97284.22
2018-07-27T06:55:39.377Z,97279.39
2018-07-27T06:58:10.212Z,97276.34
2018-07-27T07:00:42.938Z,97276.86
2018-07-27T07:03:15.430Z,97282.23
2018-07-27T07:05:45.657Z,97279.48
2018-07-27T07:08:16.347Z,97286.17
2018-07-27T07:10:46.828Z,97279.17
2018-07-27T07:13:17.136Z,97283.51
2018-07-27T07:15:47.749Z,97285.33
2018-07-27T07:18:18.027Z,97284.12
2018-07-27T07:20:48.494Z,97277.44
2018-07-27T07:23:19.603Z,97277.44
2018-07-27T07:25:50.466Z,97276.95
2018-07-27T07:28:20.826Z,97276.44
2018-07-27T07:30:51.463Z,97283.31
2018-07-27T07:33:22.658Z,97277.75
2018-07-27T07:35:53.098Z,97279.93
2018-07-27T07:38:24.333Z,97274.25
2018-07-27T07:40:54.569Z,97275.17
2018-07-27T07:43:24.664Z,97278.77
2018-07-27T07:45:55.176Z,97281.48
2018-07-27T07:48:25.507Z,97277.51
2018-07-27T07:50:55.720Z,97278.59
2018-07-27T07:53:26.138Z,97276.56
2018-07-27T07:55:56.138Z,97278.42
2018-07-27T07:58:26.102Z,97281.25
2018-07-27T08:00:58.422Z,97285.18
2018-07-27T08:03:28.482Z,97282.70
2018-07-27T08:05:58.464Z,97287.02
2018-07-27T08:08:29.271Z,97278.77
2018-07-27T08:10:59.364Z,97281.55
2018-07-27T08:13:29.339Z,97274.05
2018-07-27T08:15:59.252Z,97278.66
2018-07-27T08:18:29.207Z,97274.84
2018-07-27T08:20:59.260Z,97277.55
2018-07-27T08:23:29.322Z,97284.50
2018-07-27T08:26:56.248Z,97282.34
2018-07-27T08:29:28.209Z,97277.16
2018-07-27T08:31:58.583Z,97277.38
2018-07-27T08:34:28.533Z,97272.97
2018-07-27T08:36:58.784Z,97271.26
2018-07-27T08:39:30.396Z,97276.03
2018-07-27T08:42:00.347Z,97271.01
2018-07-27T08:44:34.545Z,97271.76
2018-07-27T08:47:04.705Z,97269.24
2018-07-27T08:49:34.697Z,97267.19
2018-07-27T08:52:04.929Z,97265.58
2018-07-27T08:54:43.109Z,97267.55
2018-07-27T08:57:13.073Z,97263.11
2018-07-27T08:59:43.059Z,97268.47
2018-07-27T09:02:13.092Z,97265.17
2018-07-27T09:04:43.088Z,97264.95
2018-07-27T09:07:13.088Z,97263.38
2018-07-27T09:09:43.909Z,97269.83
2018-07-27T09:12:13.844Z,97268.19
2018-07-27T09:14:43.646Z,97266.25
2018-07-27T09:17:13.658Z,97273.55
2018-07-27T09:19:44.093Z,97276.97
2018-07-27T09:22:14.132Z,97270.61
2018-07-27T09:24:44.218Z,97270.47
2018-07-27T09:27:14.000Z,97271.33
2018-07-27T09:29:46.754Z,97265.93
2018-07-27T09:32:17.152Z,97266.95
2018-07-27T09:34:47.617Z,97265.36
2018-07-27T09:37:17.689Z,97266.05
2018-07-27T09:39:47.646Z,97270.16
2018-07-27T09:42:17.588Z,97263.42
2018-07-27T09:44:47.460Z,97256.09
2018-07-27T09:47:17.424Z,97269.61
2018-07-27T09:49:47.438Z,97267.63
2018-07-27T09:52:17.402Z,97270.78
2018-07-27T09:54:47.278Z,97266.39
2018-07-27T09:57:17.239Z,97266.29
2018-07-27T09:59:48.086Z,97265.13
2018-07-27T10:02:18.131Z,97265.86
2018-07-27T10:04:48.130Z,97257.72
2018-07-27T10:07:18.060Z,97253.05
2018-07-27T10:09:47.993Z,97254.39
2018-07-27T10:12:18.100Z,97255.80
2018-07-27T10:14:47.957Z,97245.68
2018-07-27T10:17:17.857Z,97259.06
2018-07-27T10:19:48.855Z,97255.53
2018-07-27T10:22:18.938Z,97257.07
2018-07-27T10:24:49.231Z,97255.61
2018-07-27T10:27:19.179Z,97255.02
2018-07-27T10:29:49.193Z,97252.62
2018-07-27T10:32:19.109Z,97243.59
2018-07-27T10:34:49.520Z,97242.31
2018-07-27T10:37:25.264Z,97244.11
2018-07-27T10:39:59.953Z,97249.01
2018-07-27T10:42:29.908Z,97241.92
2018-07-27T10:44:59.862Z,97244.90
2018-07-27T10:47:29.887Z,97240.30
2018-07-27T10:49:59.904Z,97245.63
2018-07-27T10:52:30.005Z,97239.77
2018-07-27T10:55:09.346Z,97231.69
2018-07-27T10:57:40.421Z,97236.23
2018-07-27T11:00:12.988Z,97227.02
2018-07-27T11:02:43.140Z,97225.38
2018-07-27T11:05:17.849Z,97227.47
2018-07-27T11:07:47.754Z,97228.44
2018-07-27T11:10:22.962Z,97224.73
2018-07-27T11:12:52.894Z,97229.23
2018-07-27T11:15:22.982Z,97228.53
2018-07-27T11:17:52.981Z,97224.13
2018-07-27T11:20:27.117Z,97222.42
2018-07-27T11:22:57.210Z,97214.19
2018-07-27T11:25:27.426Z,97214.45
2018-07-27T11:27:57.452Z,97210.70
2018-07-27T11:30:27.474Z,97211.66
2018-07-27T11:32:57.575Z,97207.42
2018-07-27T11:35:27.527Z,97212.53
2018-07-27T11:37:57.529Z,97199.91
2018-07-27T11:40:27.367Z,97207.47
2018-07-27T11:42:57.310Z,97205.00
2018-07-27T11:45:27.228Z,97197.95
2018-07-27T11:47:57.672Z,97193.33
2018-07-27T11:50:28.291Z,97207.42
2018-07-27T11:52:58.769Z,97201.16
2018-07-27T11:55:28.793Z,97201.53
2018-07-27T11:57:58.718Z,97194.16
2018-07-27T12:00:30.035Z,97195.58
2018-07-27T12:03:00.892Z,97198.80
2018-07-27T12:05:30.854Z,97189.05
2018-07-27T12:08:01.521Z,97186.57
2018-07-27T12:10:31.638Z,97176.66
2018-07-27T12:13:01.561Z,97189.05
2018-07-27T12:15:31.491Z,97182.91
2018-07-27T12:18:01.517Z,97179.43
2018-07-27T12:20:31.763Z,97182.80
2018-07-27T12:23:01.689Z,97178.08
2018-07-27T12:25:31.564Z,97182.47
2018-07-27T12:28:01.578Z,97182.98
2018-07-27T12:30:31.661Z,97178.83
2018-07-27T12:33:01.669Z,97182.16
2018-07-27T12:35:41.326Z,97179.97
2018-07-27T12:38:11.302Z,97180.22
2018-07-27T12:40:42.986Z,97170.50
2018-07-27T12:43:12.970Z,97166.42
2018-07-27T12:45:42.876Z,97165.47
2018-07-27T12:48:12.778Z,97161.37
2018-07-27T12:50:48.066Z,97164.77
2018-07-27T12:53:19.226Z,97167.58
2018-07-27T12:55:49.917Z,97146.70
2018-07-27T12:58:20.006Z,97147.33
2018-07-27T13:00:49.884Z,97147.20
2018-07-27T13:03:19.948Z,97139.26
2018-07-27T13:05:49.882Z,97139.28
2018-07-27T13:08:19.811Z,97130.41
2018-07-27T13:10:49.891Z,97132.94
2018-07-27T13:13:19.890Z,97134.02
2018-07-27T13:15:49.833Z,97121.20
2018-07-27T13:18:20.076Z,97113.98
2018-07-27T13:20:51.690Z,97116.16
2018-07-27T13:23:22.497Z,97114.67
2018-07-27T13:26:29.267Z,97115.13
2018-07-27T13:28:44.447Z,97108.34
2018-07-27T13:31:14.965Z,97113.47
2018-07-27T13:34:02.456Z,97113.84
2018-07-27T13:36:32.455Z,97109.73
2018-07-27T13:39:03.989Z,97112.44
2018-07-27T13:41:34.289Z,97106.81
2018-07-27T13:44:04.322Z,97101.04
2018-07-27T13:46:34.232Z,97102.96
2018-07-27T13:49:04.359Z,97101.05
2018-07-27T13:51:34.324Z,97099.64
2018-07-27T13:54:04.241Z,97101.81
2018-07-27T13:56:35.225Z,97102.75
2018-07-27T13:59:05.877Z,97085.53
2018-07-27T14:01:35.879Z,97077.27
2018-07-27T14:04:05.992Z,97088.83
2018-07-27T14:06:36.046Z,97087.85
2018-07-27T14:09:09.960Z,97083.44
2018-07-27T14:11:40.532Z,97081.80
2018-07-27T14:14:10.876Z,97081.50
2018-07-27T14:16:42.299Z,97073.58
2018-07-27T14:19:13.927Z,97073.79
2018-07-27T14:21:43.905Z,97076.36
2018-07-27T14:24:13.900Z,97075.72
2018-07-27T14:26:45.678Z,97074.66
2018-07-27T14:29:15.731Z,97068.32
2018-07-27T14:31:45.848Z,97063.66
2018-07-27T14:34:15.789Z,97070.03
2018-07-27T14:36:45.935Z,97064.03
2018-07-27T14:39:18.689Z,97060.88
2018-07-27T14:41:48.707Z,97067.53
2018-07-27T14:44:19.142Z,97068.45
2018-07-27T14:46:49.146Z,97069.55
2018-07-27T14:49:21.071Z,97066.13
2018-07-27T14:51:51.615Z,97067.89
2018-07-27T14:54:21.507Z,97064.11
2018-07-27T14:56:51.709Z,97069.30
2018-07-27T14:59:23.458Z,97066.69
2018-07-27T15:01:55.663Z,97066.91
2018-07-27T15:04:26.389Z,97066.92
2018-07-27T15:07:01.944Z,97061.16
2018-07-27T15:09:32.004Z,97069.16
2018-07-27T15:12:02.238Z,97066.33
2018-07-27T15:14:32.332Z,97069.27
2018-07-27T15:17:02.797Z,97066.95
2018-07-27T15:19:32.766Z,97057.61
2018-07-27T15:22:02.989Z,97059.55
2018-07-27T15:24:41.435Z,97062.37
2018-07-27T15:27:27.999Z,97060.89
2018-07-27T15:29:59.462Z,97070.43
2018-07-27T15:32:30.519Z,97068.02
2018-07-27T15:35:02.155Z,97069.77
2018-07-27T15:37:32.292Z,97068.24
2018-07-27T15:40:02.265Z,97069.21
2018-07-27T15:42:32.335Z,97063.01
2018-07-27T15:45:02.937Z,97059.84
2018-07-27T15:47:44.126Z,97063.07
2018-07-27T15:50:18.623Z,97059.91
2018-07-27T15:52:48.742Z,97062.72
2018-07-27T15:55:18.681Z,97063.07
2018-07-27T15:57:48.522Z,97065.50
2018-07-27T16:00:18.489Z,97059.86
2018-07-27T16:02:48.614Z,97066.09
2018-07-27T16:05:19.855Z,97059.84
2018-07-27T16:07:49.824Z,97060.73
2018-07-27T16:10:21.462Z,97056.33
2018-07-27T16:12:52.705Z,97058.21
2018-07-27T16:15:22.814Z,97061.83
2018-07-27T16:17:52.748Z,97057.30
2018-07-27T16:20:22.689Z,97055.25
2018-07-27T16:22:52.767Z,97058.11
2018-07-27T16:25:22.820Z,97054.42
2018-07-27T16:27:53.688Z,97063.53
2018-07-27T16:30:23.696Z,97059.70
2018-07-27T16:32:53.731Z,97054.39
2018-07-27T16:35:23.778Z,97058.33
2018-07-27T16:37:54.339Z,97056.25
2018-07-27T16:40:24.562Z,97057.64
2018-07-27T16:42:55.605Z,97066.77
2018-07-27T16:45:32.967Z,97075.80
2018-07-27T16:48:02.920Z,97078.44
2018-07-27T16:50:41.647Z,97080.85
2018-07-27T16:53:11.857Z,97079.70
2018-07-27T16:55:43.011Z,97085.88
2018-07-27T16:58:14.428Z,97080.98
2018-07-27T17:00:45.244Z,97067.75
2018-07-27T17:03:16.253Z,97086.55
2018-07-27T17:05:46.452Z,97080.13
2018-07-27T17:08:18.345Z,97090.50
2018-07-27T17:10:57.933Z,97082.73
2018-07-27T17:13:28.444Z,97079.63
2018-07-27T17:16:06.437Z,97085.06
2018-07-27T17:18:36.454Z,97091.48
2018-07-27T17:21:12.032Z,97091.39
2018-07-27T17:23:43.121Z,97094.23
2018-07-27T17:26:16.819Z,97089.02
2018-07-27T17:28:53.398Z,97093.60
2018-07-27T17:31:24.172Z,97092.98
2018-07-27T17:33:54.409Z,97088.45
2018-07-27T17:36:25.095Z,97091.87
2018-07-27T17:38:55.928Z,97089.50
2018-07-27T17:41:27.254Z,97096.70
2018-07-27T17:43:59.924Z,97097.97
2018-07-27T17:46:30.897Z,97094.39
2018-07-27T17:49:01.796Z,97102.41
2018-07-27T17:51:33.167Z,97097.36
2018-07-27T17:54:03.646Z,97096.91
2018-07-27T17:56:34.560Z,97094.81
2018-07-27T17:59:05.744Z,97093.92
2018-07-27T18:01:35.932Z,97095.17
2018-07-27T18:04:05.880Z,97103.73
2018-07-27T18:06:47.461Z,97089.49
2018-07-27T18:09:17.436Z,97089.03
2018-07-27T18:11:47.450Z,97083.45
2018-07-27T18:14:17.583Z,97092.25
2018-07-27T18:16:47.746Z,97096.27
2018-07-27T18:19:53.279Z,97100.72
2018-07-27T18:22:24.323Z,97098.88
2018-07-27T18:24:55.231Z,97100.06
2018-07-27T18:27:25.478Z,97099.14
2018-07-27T18:29:55.582Z,97106.52
2018-07-27T18:32:25.812Z,97104.91
2018-07-27T18:34:56.048Z,97101.80
2018-07-27T18:37:26.151Z,97103.14
2018-07-27T18:39:58.419Z,97101.19
2018-07-27T18:42:28.615Z,97101.80
2018-07-27T18:45:18.982Z,97090.63
2018-07-27T18:47:49.433Z,97104.03
2018-07-27T18:50:19.593Z,97104.05
2018-07-27T18:52:49.632Z,97116.33
2018-07-27T18:55:19.733Z,97112.55
2018-07-27T18:57:49.717Z,97120.44
2018-07-27T19:00:19.786Z,97117.63
2018-07-27T19:02:50.025Z,97123.31
2018-07-27T19:05:20.103Z,97119.90
2018-07-27T19:07:50.041Z,97124.06
2018-07-27T19:10:20.766Z,97129.08
2018-07-27T19:12:50.764Z,97137.80
2018-07-27T19:15:20.875Z,97137.34
2018-07-27T19:17:51.698Z,97136.83
2018-07-27T19:20:21.838Z,97139.30
2018-07-27T20:05:22.773Z,97189.48
2018-07-27T20:07:57.766Z,97189.64
2018-07-27T20:10:35.610Z,97182.97
2018-07-27T20:13:17.568Z,97183.85
2018-07-27T20:15:48.888Z,97183.41
2018-07-27T20:18:21.293Z,97185.59
2018-07-27T20:20:52.532Z,97184.30
2018-07-27T20:23:22.751Z,97175.41
2018-07-27T20:25:52.888Z,97170.98
2018-07-27T20:28:22.941Z,97176.44
2018-07-27T20:30:54.740Z,97175.75
2018-07-27T20:33:26.996Z,97178.72
2018-07-27T20:35:57.191Z,97180.10
2018-07-27T20:38:29.197Z,97178.20
2018-07-27T20:41:00.052Z,97174.41
2018-07-27T20:43:30.336Z,97178.16
2018-07-27T20:46:00.672Z,97175.75
2018-07-27T20:48:30.971Z,97180.13
2018-07-27T20:51:01.192Z,97191.34
2018-07-27T20:53:31.070Z,97192.41
2018-07-27T20:56:01.154Z,97194.73
2018-07-27T20:58:31.438Z,97197.09
2018-07-27T21:01:03.297Z,97202.34
2018-07-27T21:03:33.342Z,97197.75
2018-07-27T21:06:18.542Z,97198.93
2018-07-27T21:08:49.462Z,97189.04
2018-07-27T21:13:20.621Z,97188.37
2018-07-27T21:16:17.743Z,97193.75
2018-07-27T21:18:57.383Z,97193.95
2018-07-27T21:21:33.402Z,97195.86
2018-07-27T21:24:03.982Z,97198.93
2018-07-27T21:26:34.798Z,97202.62
2018-07-27T21:29:05.570Z,97199.52
2018-07-27T21:31:35.658Z,97206.30
2018-07-27T21:34:21.078Z,97211.01
2018-07-27T21:36:51.917Z,97212.34
2018-07-27T21:39:23.897Z,97217.72
2018-07-27T21:41:54.048Z,97224.24
2018-07-27T21:44:24.893Z,97224.80
2018-07-27T21:46:55.677Z,97222.80
2018-07-27T21:49:25.985Z,97226.06
2018-07-27T21:51:55.870Z,97224.88
2018-07-27T21:54:30.073Z,97206.73
2018-07-27T21:57:00.026Z,97225.60
2018-07-27T21:59:29.895Z,97228.60
2018-07-27T22:02:00.043Z,97220.92
2018-07-27T22:04:30.762Z,97222.25
2018-07-27T22:07:00.759Z,97222.72
2018-07-27T22:09:30.778Z,97228.22
2018-07-27T22:12:00.905Z,97231.52
2018-07-27T22:14:30.952Z,97228.64
2018-07-27T22:17:00.979Z,97225.47
2018-07-27T22:19:30.908Z,97229.20
2018-07-27T22:22:01.622Z,97224.31
2018-07-27T22:24:31.640Z,97215.08
2018-07-27T22:27:01.693Z,97213.47
2018-07-27T22:29:37.727Z,97214.08
2018-07-27T22:32:20.775Z,97216.55
2018-07-27T22:34:50.682Z,97217.09
2018-07-27T22:37:21.398Z,97209.97
2018-07-27T22:44:58.986Z,97201.67
2018-07-27T22:47:29.581Z,97221.47
2018-07-27T22:50:00.615Z,97217.58
2018-07-27T22:52:34.934Z,97209.39
2018-07-27T22:55:05.231Z,97210.42
2018-07-27T22:57:37.209Z,97213.45
2018-07-27T23:00:10.311Z,97217.41
2018-07-27T23:02:41.340Z,97217.26
2018-07-27T23:05:12.390Z,97225.30
2018-07-27T23:07:46.658Z,97218.26
2018-07-27T23:10:22.563Z,97221.98
2018-07-27T23:12:53.550Z,97225.38
2018-07-27T23:15:24.525Z,97222.47
2018-07-27T23:17:55.196Z,97219.41
2018-07-27T23:20:26.052Z,97211.40
2018-07-27T23:22:57.213Z,97220.52
2018-07-27T23:25:42.754Z,97216.34
2018-07-27T23:28:19.339Z,97218.18
2018-07-27T23:30:51.363Z,97216.16
2018-07-27T23:33:21.642Z,97223.12
2018-07-27T23:35:52.100Z,97218.27
2018-07-27T23:38:22.425Z,97219.41
2018-07-27T23:40:53.064Z,97219.47
2018-07-27T23:43:34.057Z,97213.92
2018-07-27T23:46:05.300Z,97218.10
2018-07-27T23:48:37.853Z,97218.69
2018-07-27T23:51:09.299Z,97212.55
2018-07-27T23:53:40.487Z,97205.55
2018-07-27T23:56:10.896Z,97199.30
2018-07-27T23:58:41.860Z,97207.61
